createdAt,value
2018-07-30T00:00:09.533Z,60.63
2018-07-30T00:01:29.609Z,60.50
2018-07-30T00:02:22.760Z,60.34
2018-07-30T00:03:27.684Z,59.76
2018-07-30T00:04:42.951Z,59.76
2018-07-30T00:05:34.053Z,60.50
2018-07-30T00:07:01.102Z,60.14
2018-07-30T00:08:02.124Z,60.53
2018-07-30T00:08:51.899Z,60.63
2018-07-30T00:10:04.192Z,61.47
2018-07-30T00:12:23.052Z,61.40
2018-07-30T00:13:17.533Z,62.18
2018-07-30T00:14:31.264Z,61.57
2018-07-30T00:15:26.561Z,61.27
2018-07-30T00:16:36.200Z,61.60
2018-07-30T00:17:39.320Z,61.98
2018-07-30T00:21:05.824Z,63.21
2018-07-30T00:22:10.955Z,62.92
2018-07-30T00:23:10.861Z,63.02
2018-07-30T00:24:22.239Z,62.24
2018-07-30T00:25:19.073Z,62.82
2018-07-30T00:26:16.110Z,62.73
2018-07-30T00:28:39.374Z,63.11
2018-07-30T00:29:42.457Z,63.40
2018-07-30T00:30:41.346Z,63.40
2018-07-30T00:31:55.680Z,62.92
2018-07-30T00:32:56.712Z,62.63
2018-07-30T00:34:16.689Z,62.73
2018-07-30T00:35:13.727Z,63.60
2018-07-30T00:37:21.837Z,62.82
2018-07-30T00:38:32.849Z,62.82
2018-07-30T00:39:36.086Z,62.63
2018-07-30T00:42:52.088Z,62.53
2018-07-30T00:43:55.275Z,63.60
2018-07-30T00:44:58.354Z,63.79
2018-07-30T00:46:01.947Z,62.92
2018-07-30T00:47:07.484Z,63.31
2018-07-30T00:50:39.665Z,63.98
2018-07-30T00:51:32.716Z,63.11
2018-07-30T00:52:32.718Z,63.11
2018-07-30T00:53:51.469Z,63.79
2018-07-30T00:54:53.834Z,63.40
2018-07-30T00:57:08.082Z,63.21
2018-07-30T00:58:04.094Z,62.82
2018-07-30T00:59:14.037Z,63.11
2018-07-30T01:00:10.974Z,63.79
2018-07-30T01:01:18.149Z,64.66
2018-07-30T01:02:26.149Z,63.69
2018-07-30T01:03:36.295Z,63.56
2018-07-30T01:06:50.251Z,64.08
2018-07-30T01:07:58.554Z,64.05
2018-07-30T01:09:07.575Z,64.72
2018-07-30T01:10:22.738Z,63.56
2018-07-30T01:11:16.911Z,63.56
2018-07-30T01:14:27.147Z,63.56
2018-07-30T01:16:42.041Z,63.76
2018-07-30T01:17:44.094Z,63.56
2018-07-30T01:19:04.377Z,63.56
2018-07-30T01:20:06.330Z,63.76
2018-07-30T01:21:05.314Z,63.66
2018-07-30T01:22:21.196Z,64.63
2018-07-30T01:23:07.584Z,64.92
2018-07-30T01:24:18.553Z,65.05
2018-07-30T01:25:41.704Z,65.14
2018-07-30T01:26:37.719Z,65.01
2018-07-30T01:27:52.780Z,65.20
2018-07-30T01:28:49.819Z,65.05
2018-07-30T01:29:59.861Z,64.47
2018-07-30T01:30:59.154Z,65.34
2018-07-30T01:32:06.845Z,64.85
2018-07-30T01:33:09.208Z,64.85
2018-07-30T01:34:14.337Z,64.76
2018-07-30T01:35:16.393Z,65.24
2018-07-30T01:36:40.262Z,64.95
2018-07-30T01:37:14.479Z,64.37
2018-07-30T01:38:31.473Z,63.50
2018-07-30T01:39:39.680Z,63.50
2018-07-30T01:40:40.501Z,63.79
2018-07-30T01:42:00.584Z,63.56
2018-07-30T01:43:58.867Z,63.76
2018-07-30T01:45:10.851Z,63.56
2018-07-30T01:47:20.089Z,63.85
2018-07-30T01:49:15.904Z,64.72
2018-07-30T01:50:30.249Z,65.01
2018-07-30T01:51:35.998Z,64.92
2018-07-30T01:53:51.574Z,66.27
2018-07-30T01:54:57.521Z,66.36
2018-07-30T01:55:56.709Z,66.27
2018-07-30T01:57:17.608Z,66.27
2018-07-30T01:58:29.700Z,66.36
2018-07-30T01:59:17.831Z,66.36
2018-07-30T02:00:16.816Z,66.17
2018-07-30T02:01:25.019Z,65.78
2018-07-30T02:02:52.575Z,64.92
2018-07-30T02:03:43.162Z,65.11
2018-07-30T02:06:03.250Z,64.59
2018-07-30T02:06:43.496Z,64.43
2018-07-30T02:08:33.392Z,64.53
2018-07-30T02:09:16.485Z,64.53
2018-07-30T02:11:29.608Z,64.21
2018-07-30T02:12:48.386Z,64.98
2018-07-30T02:13:20.512Z,64.21
2018-07-30T02:14:31.684Z,64.69
2018-07-30T02:16:21.770Z,64.89
2018-07-30T02:16:51.979Z,65.37
2018-07-30T02:18:54.555Z,64.89
2018-07-30T02:20:28.050Z,65.56
2018-07-30T02:21:31.303Z,65.56
2018-07-30T02:23:54.186Z,65.91
2018-07-30T02:25:32.800Z,66.20
2018-07-30T02:26:52.367Z,65.91
2018-07-30T02:28:32.108Z,66.49
2018-07-30T02:29:17.166Z,67.17
2018-07-30T02:30:06.728Z,66.97
2018-07-30T02:31:12.985Z,66.88
2018-07-30T02:32:39.106Z,67.36
2018-07-30T02:33:27.140Z,67.55
2018-07-30T02:35:48.963Z,66.97
2018-07-30T02:37:05.469Z,67.27
2018-07-30T02:39:20.737Z,67.27
2018-07-30T02:39:50.022Z,67.27
2018-07-30T02:42:16.904Z,68.23
2018-07-30T02:43:37.265Z,68.71
2018-07-30T02:44:41.874Z,68.13
2018-07-30T02:45:49.150Z,67.55
2018-07-30T02:46:57.863Z,66.97
2018-07-30T02:48:01.971Z,66.69
2018-07-30T02:48:49.588Z,66.97
2018-07-30T02:49:57.076Z,66.97
2018-07-30T02:51:05.379Z,66.78
2018-07-30T02:52:25.455Z,66.88
2018-07-30T02:53:27.922Z,67.27
2018-07-30T02:54:14.718Z,67.36
2018-07-30T02:55:21.287Z,67.23
2018-07-30T02:56:47.304Z,67.36
2018-07-30T02:57:25.702Z,67.71
2018-07-30T02:58:53.870Z,68.19
2018-07-30T02:59:42.723Z,68.29
2018-07-30T03:00:55.425Z,68.13
2018-07-30T03:02:52.369Z,68.39
2018-07-30T03:04:08.144Z,68.19
2018-07-30T03:05:15.424Z,67.23
2018-07-30T03:06:45.132Z,67.04
2018-07-30T03:07:20.459Z,67.23
2018-07-30T03:08:37.467Z,67.23
2018-07-30T03:09:26.151Z,66.85
2018-07-30T03:10:30.417Z,67.23
2018-07-30T03:11:49.993Z,67.23
2018-07-30T03:13:09.920Z,67.23
2018-07-30T03:13:42.528Z,67.23
2018-07-30T03:14:50.936Z,67.04
2018-07-30T03:16:06.712Z,67.33
2018-07-30T03:17:10.510Z,68.19
2018-07-30T03:18:22.090Z,67.71
2018-07-30T03:21:22.735Z,68.10
2018-07-30T03:24:02.794Z,67.62
2018-07-30T03:24:44.469Z,67.52
2018-07-30T03:25:53.201Z,67.23
2018-07-30T03:26:55.446Z,68.10
2018-07-30T03:28:05.594Z,67.91
2018-07-30T03:30:15.036Z,67.52
2018-07-30T03:31:42.896Z,67.23
2018-07-30T03:32:33.893Z,68.10
2018-07-30T03:33:37.390Z,68.39
2018-07-30T03:35:48.668Z,68.29
2018-07-30T03:36:54.308Z,67.62
2018-07-30T03:38:09.881Z,67.43
2018-07-30T03:39:12.245Z,67.23
2018-07-30T03:39:59.247Z,67.14
2018-07-30T03:40:58.129Z,67.33
2018-07-30T03:42:03.976Z,67.43
2018-07-30T03:43:34.203Z,66.94
2018-07-30T03:44:26.322Z,67.91
2018-07-30T03:45:50.290Z,68.59
2018-07-30T03:46:39.654Z,68.01
2018-07-30T03:48:18.061Z,67.81
2018-07-30T03:48:52.982Z,67.33
2018-07-30T03:50:13.071Z,67.62
2018-07-30T03:51:11.536Z,67.04
2018-07-30T03:52:01.100Z,67.04
2018-07-30T03:53:04.999Z,67.52
2018-07-30T03:54:12.894Z,66.46
2018-07-30T03:55:30.313Z,66.75
2018-07-30T03:56:27.769Z,66.36
2018-07-30T03:57:43.234Z,66.94
2018-07-30T03:58:36.381Z,67.14
2018-07-30T04:00:05.743Z,67.43
2018-07-30T04:00:55.343Z,67.23
2018-07-30T04:03:08.467Z,67.43
2018-07-30T04:04:27.828Z,67.43
2018-07-30T04:06:35.115Z,68.19
2018-07-30T04:07:26.532Z,68.19
2018-07-30T04:08:33.084Z,67.91
2018-07-30T04:09:48.247Z,67.33
2018-07-30T04:10:56.140Z,67.43
2018-07-30T04:11:39.869Z,66.94
2018-07-30T04:13:01.793Z,66.52
2018-07-30T04:14:05.391Z,67.43
2018-07-30T04:15:08.775Z,67.33
2018-07-30T04:16:17.691Z,68.19
2018-07-30T04:18:27.741Z,66.75
2018-07-30T04:19:34.303Z,66.85
2018-07-30T04:20:28.270Z,66.94
2018-07-30T04:23:50.210Z,67.52
2018-07-30T04:24:52.984Z,67.62
2018-07-30T04:26:06.818Z,68.19
2018-07-30T04:28:06.841Z,68.39
2018-07-30T04:29:12.887Z,67.71
2018-07-30T04:31:23.557Z,67.52
2018-07-30T04:32:33.804Z,67.23
2018-07-30T04:33:46.966Z,66.94
2018-07-30T04:34:48.463Z,67.33
2018-07-30T04:35:47.551Z,67.91
2018-07-30T04:36:56.985Z,67.04
2018-07-30T04:38:09.998Z,67.23
2018-07-30T04:39:02.329Z,67.33
2018-07-30T04:40:04.998Z,67.43
2018-07-30T04:41:16.272Z,67.62
2018-07-30T04:42:25.508Z,68.39
2018-07-30T04:43:38.017Z,68.29
2018-07-30T04:44:43.334Z,68.19
2018-07-30T04:45:34.024Z,68.29
2018-07-30T04:46:39.051Z,68.45
2018-07-30T04:48:53.812Z,68.55
2018-07-30T04:49:52.899Z,68.45
2018-07-30T04:51:04.785Z,69.42
2018-07-30T04:52:15.854Z,69.23
2018-07-30T04:54:24.372Z,70.00
2018-07-30T04:55:46.497Z,69.51
2018-07-30T04:56:26.848Z,70.00
2018-07-30T04:57:36.273Z,70.19
2018-07-30T04:58:42.227Z,70.38
2018-07-30T04:59:42.747Z,69.90
2018-07-30T05:01:02.242Z,70.00
2018-07-30T05:02:58.335Z,70.67
2018-07-30T05:04:25.479Z,70.48
2018-07-30T05:05:10.435Z,71.34
2018-07-30T05:06:26.120Z,71.12
2018-07-30T05:08:24.985Z,72.18
2018-07-30T05:09:42.590Z,71.12
2018-07-30T05:10:48.467Z,71.50
2018-07-30T05:11:53.287Z,71.79
2018-07-30T05:12:48.031Z,71.50
2018-07-30T05:14:08.459Z,71.50
2018-07-30T05:15:03.562Z,71.31
2018-07-30T05:16:05.712Z,71.41
2018-07-30T05:17:21.699Z,71.34
2018-07-30T05:19:38.049Z,71.73
2018-07-30T05:20:33.904Z,72.12
2018-07-30T05:21:29.714Z,71.34
2018-07-30T05:22:52.457Z,71.64
2018-07-30T05:23:57.074Z,70.96
2018-07-30T05:27:12.150Z,71.06
2018-07-30T05:29:16.674Z,70.70
2018-07-30T05:31:34.386Z,70.70
2018-07-30T05:32:35.157Z,70.42
2018-07-30T05:33:38.521Z,70.80
2018-07-30T05:36:04.652Z,70.80
2018-07-30T05:37:10.653Z,70.80
2018-07-30T05:37:59.755Z,70.61
2018-07-30T05:39:10.614Z,70.61
2018-07-30T05:40:15.333Z,70.51
2018-07-30T05:41:13.397Z,71.00
2018-07-30T05:42:31.323Z,70.61
2018-07-30T05:43:31.131Z,70.80
2018-07-30T05:44:41.172Z,70.70
2018-07-30T05:46:45.495Z,71.38
2018-07-30T05:47:49.799Z,71.09
2018-07-30T05:50:02.273Z,71.28
2018-07-30T05:51:08.771Z,70.84
2018-07-30T05:52:28.337Z,70.74
2018-07-30T05:53:25.377Z,70.64
2018-07-30T05:54:39.004Z,70.16
2018-07-30T05:55:26.827Z,70.94
2018-07-30T05:56:48.446Z,70.54
2018-07-30T05:57:46.402Z,70.06
2018-07-30T05:58:59.315Z,70.45
2018-07-30T05:59:52.900Z,70.26
2018-07-30T06:00:52.266Z,70.16
2018-07-30T06:01:54.017Z,70.26
2018-07-30T06:03:32.428Z,70.29
2018-07-30T06:04:11.854Z,69.81
2018-07-30T06:05:22.521Z,69.49
2018-07-30T06:06:42.899Z,69.23
2018-07-30T06:07:49.021Z,68.94
2018-07-30T06:08:57.460Z,68.65
2018-07-30T06:09:42.358Z,68.17
2018-07-30T06:10:47.039Z,68.46
2018-07-30T06:12:17.455Z,68.46
2018-07-30T06:13:19.614Z,68.46
2018-07-30T06:14:32.832Z,67.82
2018-07-30T06:15:51.888Z,68.59
2018-07-30T06:16:52.305Z,67.82
2018-07-30T06:17:53.441Z,68.20
2018-07-30T06:18:54.472Z,68.10
2018-07-30T06:19:41.887Z,68.20
2018-07-30T06:21:21.834Z,68.40
2018-07-30T06:22:11.193Z,68.59
2018-07-30T06:23:31.374Z,68.10
2018-07-30T06:24:19.606Z,68.59
2018-07-30T06:25:26.474Z,68.68
2018-07-30T06:26:19.981Z,67.82
2018-07-30T06:27:42.568Z,67.56
2018-07-30T06:28:51.030Z,67.56
2018-07-30T06:30:48.020Z,67.46
2018-07-30T06:32:04.004Z,67.75
2018-07-30T06:32:55.001Z,68.33
2018-07-30T06:34:28.091Z,68.24
2018-07-30T06:35:10.278Z,67.36
2018-07-30T06:35:57.383Z,67.94
2018-07-30T06:37:09.475Z,68.08
2018-07-30T06:38:16.445Z,67.79
2018-07-30T06:40:17.587Z,67.30
2018-07-30T06:42:46.787Z,67.49
2018-07-30T06:43:52.024Z,67.40
2018-07-30T06:44:42.912Z,66.63
2018-07-30T06:45:57.155Z,67.01
2018-07-30T06:46:59.210Z,65.98
2018-07-30T06:47:58.156Z,64.82
2018-07-30T06:49:09.268Z,65.50
2018-07-30T06:50:10.396Z,64.82
2018-07-30T06:51:23.615Z,65.30
2018-07-30T06:53:18.763Z,65.20
2018-07-30T06:54:32.547Z,65.20
2018-07-30T06:55:34.707Z,64.66
2018-07-30T06:56:31.832Z,62.92
2018-07-30T06:57:47.115Z,63.69
2018-07-30T06:58:57.466Z,63.11
2018-07-30T07:00:07.206Z,62.34
2018-07-30T07:01:05.677Z,61.95
2018-07-30T07:02:07.941Z,60.78
2018-07-30T07:03:14.964Z,60.52
2018-07-30T07:04:29.053Z,60.62
2018-07-30T07:06:35.626Z,59.36
2018-07-30T07:07:37.784Z,58.11
2018-07-30T07:08:36.974Z,58.01
2018-07-30T07:09:51.119Z,57.71
2018-07-30T07:11:03.008Z,57.53
2018-07-30T07:12:03.323Z,56.68
2018-07-30T07:13:27.396Z,56.46
2018-07-30T07:14:07.232Z,55.90
2018-07-30T07:15:16.455Z,55.62
2018-07-30T07:18:50.785Z,55.26
2018-07-30T07:19:28.932Z,55.13
2018-07-30T07:20:45.113Z,55.35
2018-07-30T07:21:41.188Z,54.58
2018-07-30T07:23:17.457Z,54.77
2018-07-30T07:24:00.457Z,53.80
2018-07-30T07:25:19.208Z,54.48
2018-07-30T07:26:23.517Z,54.48
2018-07-30T07:27:35.514Z,53.73
2018-07-30T07:28:21.280Z,53.83
2018-07-30T07:29:31.426Z,54.02
2018-07-30T07:30:38.502Z,53.73
2018-07-30T07:31:34.729Z,54.19
2018-07-30T07:32:40.053Z,54.48
2018-07-30T07:33:57.268Z,54.41
2018-07-30T07:35:57.181Z,54.41
2018-07-30T07:37:03.547Z,53.83
2018-07-30T07:38:12.661Z,53.44
2018-07-30T07:39:08.471Z,53.05
2018-07-30T07:41:24.463Z,53.27
2018-07-30T07:42:44.747Z,53.27
2018-07-30T07:43:34.722Z,53.37
2018-07-30T07:44:37.699Z,53.08
2018-07-30T07:45:51.733Z,52.98
2018-07-30T07:47:03.311Z,52.01
2018-07-30T07:48:06.501Z,52.62
2018-07-30T07:49:07.320Z,52.33
2018-07-30T07:50:08.846Z,52.42
2018-07-30T07:51:11.263Z,52.52
2018-07-30T07:52:14.313Z,52.23
2018-07-30T07:53:24.760Z,53.20
2018-07-30T07:55:35.937Z,52.13
2018-07-30T07:59:06.480Z,50.87
2018-07-30T07:59:55.326Z,50.89
2018-07-30T08:01:00.455Z,51.48
2018-07-30T08:02:07.735Z,51.57
2018-07-30T08:03:15.728Z,52.06
2018-07-30T08:04:29.153Z,51.67
2018-07-30T08:07:54.163Z,51.48
2018-07-30T08:08:58.164Z,50.41
2018-07-30T08:11:05.825Z,50.63
2018-07-30T08:12:01.261Z,51.01
2018-07-30T08:13:50.832Z,51.89
2018-07-30T08:14:20.119Z,52.09
2018-07-30T08:15:39.889Z,51.99
2018-07-30T08:16:42.458Z,50.82
2018-07-30T08:17:47.085Z,51.50
2018-07-30T08:18:53.332Z,50.82
2018-07-30T08:19:37.570Z,51.40
2018-07-30T08:20:38.397Z,51.40
2018-07-30T08:22:05.442Z,51.40
2018-07-30T08:24:13.752Z,51.99
2018-07-30T08:25:05.053Z,51.79
2018-07-30T08:26:14.484Z,50.73
2018-07-30T08:28:28.738Z,50.75
2018-07-30T08:29:25.393Z,51.82
2018-07-30T08:30:44.523Z,50.85
2018-07-30T08:31:46.683Z,50.56
2018-07-30T08:32:42.811Z,50.26
2018-07-30T08:33:48.852Z,50.85
2018-07-30T08:34:55.007Z,51.04
2018-07-30T08:36:08.940Z,51.23
2018-07-30T08:36:59.934Z,50.65
2018-07-30T08:38:11.515Z,50.65
2018-07-30T08:39:37.133Z,51.23
2018-07-30T08:40:28.328Z,50.95
2018-07-30T08:41:33.046Z,51.14
2018-07-30T08:42:47.601Z,51.53
2018-07-30T08:43:44.838Z,50.95
2018-07-30T08:44:44.031Z,50.48
2018-07-30T08:45:53.562Z,51.07
2018-07-30T08:48:10.066Z,51.36
2018-07-30T08:49:15.404Z,50.48
2018-07-30T08:50:13.667Z,50.58
2018-07-30T08:51:26.070Z,50.19
2018-07-30T08:53:30.797Z,50.58
2018-07-30T08:54:40.231Z,50.29
2018-07-30T08:55:44.747Z,50.48
2018-07-30T08:56:56.322Z,49.71
2018-07-30T08:57:53.361Z,49.99
2018-07-30T08:59:07.504Z,50.48
2018-07-30T09:00:05.768Z,49.71
2018-07-30T09:01:03.935Z,49.32
2018-07-30T09:02:19.201Z,49.54
2018-07-30T09:04:34.067Z,49.92
2018-07-30T09:05:32.541Z,51.09
2018-07-30T09:06:52.313Z,50.51
2018-07-30T09:07:48.633Z,49.73
2018-07-30T09:09:04.005Z,49.63
2018-07-30T09:09:56.948Z,48.95
2018-07-30T09:10:59.105Z,48.75
2018-07-30T09:12:17.341Z,47.59
2018-07-30T09:13:11.004Z,47.69
2018-07-30T09:14:20.740Z,48.46
2018-07-30T09:15:26.790Z,48.46
2018-07-30T09:16:28.641Z,48.66
2018-07-30T09:18:41.669Z,50.31
2018-07-30T09:19:45.055Z,49.44
2018-07-30T09:21:04.726Z,50.34
2018-07-30T09:21:52.345Z,50.12
2018-07-30T09:23:07.408Z,49.66
2018-07-30T09:24:07.620Z,49.46
2018-07-30T09:26:17.160Z,49.07
2018-07-30T09:27:27.614Z,49.17
2018-07-30T09:28:43.196Z,49.37
2018-07-30T09:29:37.169Z,48.88
2018-07-30T09:30:46.790Z,48.58
2018-07-30T09:31:46.079Z,48.78
2018-07-30T09:32:51.231Z,48.29
2018-07-30T09:34:10.881Z,48.29
2018-07-30T09:36:06.641Z,49.29
2018-07-30T09:37:14.183Z,47.83
2018-07-30T09:39:36.167Z,48.51
2018-07-30T09:41:42.786Z,47.05
2018-07-30T09:42:59.900Z,47.44
2018-07-30T09:43:53.558Z,48.02
2018-07-30T09:45:54.805Z,48.63
2018-07-30T09:49:07.528Z,47.07
2018-07-30T09:50:25.279Z,46.88
2018-07-30T09:51:24.542Z,47.66
2018-07-30T09:52:36.940Z,48.14
2018-07-30T09:53:46.269Z,47.66
2018-07-30T09:54:38.295Z,47.85
2018-07-30T09:56:00.109Z,47.85
2018-07-30T09:57:00.526Z,47.49
2018-07-30T09:58:18.016Z,47.58
2018-07-30T09:59:13.753Z,47.88
2018-07-30T10:00:15.813Z,48.58
2018-07-30T10:01:12.139Z,47.31
2018-07-30T10:02:23.713Z,46.53
2018-07-30T10:03:23.117Z,46.63
2018-07-30T10:04:33.563Z,46.83
2018-07-30T10:05:41.869Z,46.85
2018-07-30T10:06:39.318Z,46.95
2018-07-30T10:08:57.357Z,45.29
2018-07-30T10:12:11.160Z,44.90
2018-07-30T10:13:21.867Z,45.48
2018-07-30T10:15:28.233Z,44.80
2018-07-30T10:16:38.069Z,45.29
2018-07-30T10:17:56.455Z,45.78
2018-07-30T10:18:43.456Z,45.48
2018-07-30T10:19:45.775Z,46.17
2018-07-30T10:22:02.687Z,44.53
2018-07-30T10:23:07.516Z,44.63
2018-07-30T10:24:14.171Z,44.63
2018-07-30T10:26:32.931Z,44.55
2018-07-30T10:27:24.031Z,44.55
2018-07-30T10:28:46.158Z,44.45
2018-07-30T10:29:48.933Z,44.45
2018-07-30T10:30:54.370Z,43.67
2018-07-30T10:31:44.855Z,43.48
2018-07-30T10:32:55.309Z,44.55
2018-07-30T10:33:59.004Z,43.67
2018-07-30T10:35:15.190Z,44.45
2018-07-30T10:36:20.177Z,44.26
2018-07-30T10:37:25.348Z,43.89
2018-07-30T10:38:27.918Z,43.59
2018-07-30T10:39:35.713Z,44.48
2018-07-30T10:40:53.432Z,43.59
2018-07-30T10:41:51.395Z,43.13
2018-07-30T10:44:02.369Z,42.15
2018-07-30T10:47:16.938Z,42.93
2018-07-30T10:49:18.689Z,41.39
2018-07-30T10:50:33.242Z,41.19
2018-07-30T10:51:34.074Z,42.76
2018-07-30T10:52:37.465Z,42.95
2018-07-30T10:53:46.013Z,42.09
2018-07-30T10:55:50.897Z,42.38
2018-07-30T10:57:02.581Z,42.09
2018-07-30T10:59:18.573Z,42.19
2018-07-30T11:00:21.345Z,42.19
2018-07-30T11:01:23.302Z,41.50
2018-07-30T11:02:30.679Z,41.11
2018-07-30T11:03:36.628Z,41.60
2018-07-30T11:04:31.825Z,42.50
2018-07-30T11:05:43.406Z,42.21
2018-07-30T11:07:51.248Z,41.33
2018-07-30T11:09:08.422Z,41.13
2018-07-30T11:10:05.972Z,40.55
2018-07-30T11:11:08.025Z,40.16
2018-07-30T11:12:15.306Z,38.80
2018-07-30T11:13:22.790Z,39.19
2018-07-30T11:14:40.563Z,39.69
2018-07-30T11:15:35.402Z,39.98
2018-07-30T11:16:47.085Z,39.69
2018-07-30T11:17:45.557Z,38.21
2018-07-30T11:18:49.881Z,38.80
2018-07-30T11:19:52.239Z,39.39
2018-07-30T11:21:00.127Z,39.98
2018-07-30T11:22:06.803Z,38.60
2018-07-30T11:23:23.802Z,39.69
2018-07-30T11:25:24.691Z,38.60
2018-07-30T11:26:29.664Z,39.59
2018-07-30T11:27:32.235Z,39.69
2018-07-30T11:28:41.046Z,40.47
2018-07-30T11:30:47.820Z,39.22
2018-07-30T11:31:52.344Z,38.92
2018-07-30T11:33:14.876Z,38.92
2018-07-30T11:34:09.254Z,39.70
2018-07-30T11:36:22.715Z,39.51
2018-07-30T11:38:36.833Z,40.09
2018-07-30T11:39:43.702Z,39.22
2018-07-30T11:40:43.510Z,39.14
2018-07-30T11:42:58.100Z,39.72
2018-07-30T11:44:00.022Z,39.82
2018-07-30T11:45:09.143Z,38.74
2018-07-30T11:46:09.456Z,38.25
2018-07-30T11:47:11.619Z,38.15
2018-07-30T11:48:20.339Z,36.88
2018-07-30T11:49:37.652Z,38.66
2018-07-30T11:50:26.185Z,36.99
2018-07-30T11:51:27.319Z,36.21
2018-07-30T11:52:42.073Z,36.60
2018-07-30T11:53:44.650Z,37.29
2018-07-30T11:54:53.567Z,37.38
2018-07-30T11:56:04.741Z,36.80
2018-07-30T11:58:07.511Z,36.22
2018-07-30T11:59:11.928Z,36.82
2018-07-30T12:00:24.326Z,35.83
2018-07-30T12:01:22.114Z,36.03
2018-07-30T12:02:35.923Z,36.52
2018-07-30T12:03:54.050Z,35.75
2018-07-30T12:04:39.208Z,35.75
2018-07-30T12:05:48.437Z,37.13
2018-07-30T12:06:50.596Z,36.93
2018-07-30T12:08:00.848Z,36.74
2018-07-30T12:08:54.689Z,36.05
2018-07-30T12:11:13.979Z,34.89
2018-07-30T12:12:11.328Z,35.57
2018-07-30T12:13:23.714Z,35.47
2018-07-30T12:14:34.541Z,35.47
2018-07-30T12:15:46.894Z,34.49
2018-07-30T12:16:34.311Z,33.92
2018-07-30T12:17:48.134Z,33.92
2018-07-30T12:19:00.018Z,34.11
2018-07-30T12:20:01.869Z,34.22
2018-07-30T12:22:09.157Z,33.72
2018-07-30T12:23:20.948Z,34.51
2018-07-30T12:24:14.106Z,35.20
2018-07-30T12:25:43.541Z,35.88
2018-07-30T12:26:34.384Z,34.22
2018-07-30T12:27:49.649Z,34.22
2018-07-30T12:28:36.754Z,34.80
2018-07-30T12:29:46.182Z,35.30
2018-07-30T12:31:12.411Z,35.69
2018-07-30T12:32:02.179Z,34.41
2018-07-30T12:33:07.919Z,34.01
2018-07-30T12:34:13.765Z,33.43
2018-07-30T12:35:01.996Z,33.72
2018-07-30T12:36:13.817Z,33.53
2018-07-30T12:37:32.531Z,33.15
2018-07-30T12:38:53.943Z,33.25
2018-07-30T12:39:35.828Z,33.44
2018-07-30T12:40:36.141Z,33.34
2018-07-30T12:43:24.259Z,33.74
2018-07-30T12:43:56.650Z,32.36
2018-07-30T12:44:58.938Z,33.25
2018-07-30T12:46:39.164Z,34.53
2018-07-30T12:47:11.262Z,33.26
2018-07-30T12:48:23.311Z,32.48
2018-07-30T12:49:41.547Z,31.38
2018-07-30T12:50:44.863Z,31.28
2018-07-30T12:51:39.620Z,31.97
2018-07-30T12:53:13.319Z,30.19
2018-07-30T12:54:17.011Z,31.38
2018-07-30T12:54:51.338Z,30.68
2018-07-30T12:56:10.679Z,32.56
2018-07-30T12:57:00.905Z,33.25
2018-07-30T12:58:17.248Z,33.34
2018-07-30T12:59:21.659Z,33.15
2018-07-30T13:00:15.114Z,33.15
2018-07-30T13:02:03.356Z,33.25
2018-07-30T13:02:52.981Z,34.03
2018-07-30T13:04:08.085Z,34.82
2018-07-30T13:04:52.943Z,34.23
2018-07-30T13:05:55.102Z,33.84
2018-07-30T13:06:54.289Z,34.03
2018-07-30T13:07:55.526Z,33.03
2018-07-30T13:09:20.726Z,33.92
2018-07-30T13:10:29.029Z,33.82
2018-07-30T13:11:39.891Z,34.41
2018-07-30T13:12:30.785Z,34.51
2018-07-30T13:14:08.171Z,34.11
2018-07-30T13:14:32.238Z,34.41
2018-07-30T13:16:51.819Z,33.92
2018-07-30T13:18:16.401Z,35.10
2018-07-30T13:19:02.998Z,33.72
2018-07-30T13:19:56.356Z,33.53
2018-07-30T13:21:23.500Z,35.88
2018-07-30T13:23:03.236Z,34.31
2018-07-30T13:23:37.747Z,35.10
2018-07-30T13:25:50.255Z,36.18
2018-07-30T13:26:09.198Z,34.01
2018-07-30T13:27:50.187Z,34.01
2018-07-30T13:28:29.904Z,35.88
2018-07-30T13:30:26.961Z,35.99
2018-07-30T13:30:42.004Z,34.80
2018-07-30T13:32:27.891Z,36.18
2018-07-30T13:32:54.412Z,35.78
2018-07-30T13:36:58.758Z,34.31
2018-07-30T13:38:54.367Z,32.93
2018-07-30T13:40:33.799Z,34.51
2018-07-30T13:43:26.157Z,33.43
2018-07-30T13:45:16.021Z,33.51
2018-07-30T13:46:23.822Z,34.20
2018-07-30T13:46:54.432Z,34.30
2018-07-30T13:49:24.864Z,34.78
2018-07-30T13:50:07.362Z,35.49
2018-07-30T13:51:09.328Z,34.99
2018-07-30T13:52:47.621Z,36.08
2018-07-30T13:53:29.814Z,36.08
2018-07-30T13:55:05.666Z,34.89
2018-07-30T13:55:24.097Z,34.70
2018-07-30T13:56:54.114Z,35.00
2018-07-30T13:58:02.414Z,35.39
2018-07-30T13:58:51.876Z,34.61
2018-07-30T14:00:23.324Z,35.99
2018-07-30T14:01:04.898Z,34.22
2018-07-30T14:02:00.201Z,34.41
2018-07-30T14:03:17.410Z,35.39
2018-07-30T14:05:21.018Z,35.39
2018-07-30T14:06:41.820Z,34.20
2018-07-30T14:07:05.460Z,35.77
2018-07-30T14:08:28.415Z,34.59
2018-07-30T14:09:18.792Z,35.67
2018-07-30T14:12:28.546Z,34.28
2018-07-30T14:13:33.369Z,36.24
2018-07-30T14:15:38.404Z,37.62
2018-07-30T14:16:03.597Z,35.66
2018-07-30T14:18:07.604Z,36.05
2018-07-30T14:19:38.130Z,36.83
2018-07-30T14:21:00.263Z,36.52
2018-07-30T14:21:42.656Z,37.01
2018-07-30T14:22:45.943Z,37.01
2018-07-30T14:23:38.373Z,37.21
2018-07-30T14:24:48.415Z,36.82
2018-07-30T14:25:44.736Z,37.30
2018-07-30T14:26:56.631Z,38.58
2018-07-30T14:28:17.532Z,39.07
2018-07-30T14:29:00.539Z,38.56
2018-07-30T14:30:18.769Z,38.56
2018-07-30T14:31:36.697Z,36.82
2018-07-30T14:32:34.964Z,36.70
2018-07-30T14:33:54.531Z,36.51
2018-07-30T14:34:39.485Z,38.29
2018-07-30T14:35:45.639Z,38.27
2018-07-30T14:36:58.041Z,38.17
2018-07-30T14:38:03.784Z,38.58
2018-07-30T14:39:00.824Z,39.74
2018-07-30T14:40:16.090Z,37.68
2018-07-30T14:41:21.117Z,37.88
2018-07-30T14:42:24.632Z,39.15
2018-07-30T14:43:43.707Z,37.58
2018-07-30T14:44:22.060Z,38.27
2018-07-30T14:45:21.352Z,38.07
2018-07-30T14:46:34.262Z,38.17
2018-07-30T14:47:36.530Z,37.78
2018-07-30T14:49:46.783Z,37.48
2018-07-30T14:52:08.203Z,37.09
2018-07-30T14:53:12.000Z,36.80
2018-07-30T14:54:23.701Z,37.98
2018-07-30T14:55:24.819Z,38.27
2018-07-30T14:57:34.049Z,37.68
2018-07-30T14:58:43.080Z,36.80
2018-07-30T14:59:54.251Z,37.38
2018-07-30T15:00:58.355Z,37.78
2018-07-30T15:02:10.134Z,39.94
2018-07-30T15:04:13.216Z,40.23
2018-07-30T15:06:14.425Z,38.46
2018-07-30T15:07:24.920Z,38.37
2018-07-30T15:08:20.016Z,39.35
2018-07-30T15:09:29.854Z,39.45
2018-07-30T15:10:38.362Z,37.98
2018-07-30T15:11:36.168Z,39.15
2018-07-30T15:13:10.952Z,40.03
2018-07-30T15:14:06.855Z,39.25
2018-07-30T15:15:08.929Z,40.53
2018-07-30T15:16:24.895Z,40.01
2018-07-30T15:17:22.652Z,38.85
2018-07-30T15:18:10.370Z,39.64
2018-07-30T15:19:28.535Z,38.17
2018-07-30T15:20:16.840Z,37.98
2018-07-30T15:21:30.671Z,38.07
2018-07-30T15:22:40.215Z,37.58
2018-07-30T15:23:37.240Z,38.06
2018-07-30T15:26:07.577Z,38.07
2018-07-30T15:27:15.872Z,38.74
2018-07-30T15:28:06.048Z,37.98
2018-07-30T15:29:13.123Z,37.68
2018-07-30T15:30:15.284Z,37.58
2018-07-30T15:31:28.506Z,38.25
2018-07-30T15:32:43.457Z,38.27
2018-07-30T15:33:36.608Z,37.88
2018-07-30T15:34:40.099Z,38.56
2018-07-30T15:35:34.195Z,39.25
2018-07-30T15:36:40.425Z,38.17
2018-07-30T15:38:04.499Z,39.72
2018-07-30T15:39:06.762Z,39.62
2018-07-30T15:41:19.068Z,38.74
2018-07-30T15:42:24.102Z,37.86
2018-07-30T15:43:24.510Z,38.64
2018-07-30T15:44:27.599Z,37.76
2018-07-30T15:46:44.613Z,39.01
2018-07-30T15:47:50.148Z,39.72
2018-07-30T15:49:58.354Z,39.51
2018-07-30T15:50:55.701Z,39.61
2018-07-30T15:52:24.698Z,40.39
2018-07-30T15:53:10.053Z,39.62
2018-07-30T15:54:24.749Z,39.14
2018-07-30T15:55:33.529Z,39.72
2018-07-30T15:56:29.230Z,38.93
2018-07-30T15:57:30.686Z,39.14
2018-07-30T15:58:43.892Z,39.33
2018-07-30T15:59:51.996Z,40.90
2018-07-30T16:01:55.340Z,40.51
2018-07-30T16:02:54.989Z,39.92
2018-07-30T16:04:04.725Z,39.70
2018-07-30T16:06:19.079Z,37.76
2018-07-30T16:07:24.210Z,38.35
2018-07-30T16:08:32.308Z,38.43
2018-07-30T16:09:41.431Z,38.53
2018-07-30T16:10:42.462Z,38.33
2018-07-30T16:11:54.757Z,38.04
2018-07-30T16:12:58.044Z,38.33
2018-07-30T16:14:00.102Z,38.72
2018-07-30T16:15:09.123Z,38.92
2018-07-30T16:17:13.651Z,38.53
2018-07-30T16:18:35.770Z,38.23
2018-07-30T16:19:26.255Z,38.33
2018-07-30T16:20:39.986Z,38.82
2018-07-30T16:21:39.789Z,39.41